Share

Memphis, MO

KMOLANCA2 Elev 915 ft | 40.52 °N, 92.52 °W | Change Station

Current weather conditions updated 13 minutes ago

Clear
Clear
73.6 °F
Feels Like 77 °F
N
5.0
Wind Variable Wind from SW
Sunrise 6:24 AM
Sunset 7:51 PM
Moon Waning Gibbous

Tomorrow is forecast to be Warmer than today.

Pressure 30.11 in
Visibility 10.0 miles
Clouds Clear
Heat Index 77 °F
Dew Point 47 °F
Humidity 39%
Rainfall 0.00 in
Snow Depth Not available.
UV 2 out of 16
Pollen 11.10 out of 12
Air Quality Not available.
Flu Activity Sporadic
METAR KIRK 192255Z AUTO 17013G17KT 10SM CLR 24/04 A3010 RMK AO2 SLP194 T02440044

More Conditions Fewer Conditions

Pressure 30.11 in
Visibility 10.0 miles
Clouds Clear
Heat Index 77 °F
Dew Point 47 °F
Humidity 39%
Rainfall 0.00 in
Snow Depth Not available.
UV 2 out of 16
Pollen 11.10 out of 12
Air Quality Not available.
Flu Activity Sporadic
METAR KIRK 192255Z AUTO 17013G17KT 10SM CLR 24/04 A3010 RMK AO2 SLP194 T02440044

More Conditions Fewer Conditions

10-Day Weather Forecast

Almanac

Astronomy

Apr. 19, 2014 Rise Set
Actual Time 6:24 AM CDT 7:51 PM CDT
Civil Twilight 5:55 AM CDT 8:20 PM CDT
Nautical Twilight 5:21 AM CDT 8:55 PM CDT
Astronomical Twilight 4:45 AM CDT 9:31 PM CDT
Moon No Moon Rise 9:42 AM CDT
Length of Visible Light 14h 24m
Length of Day
13h 27m
Tomorrow will be 2m 29s longer.
Waning Gibbous, 76% of the Moon is Illuminated
Today
Waning Gibbous
Apr 22
Last Quarter
Apr 29
New
May 6
First Quarter
May 14
Full

Today's Extremes

State Highs State Lows

Community

  • Happy Easter WU friends!!!!
    Happy Easter WU friends!!!!
  • Skirting the Horizon
    Skirting the Horizon
  • Piriapolis
    Piriapolis
  • A Glorious Morning
    A Glorious Morning
  • Tender Rays Of Hope
    Tender Rays Of Hope

WunderPhotos

Upload Photos

1,702,956 photos uploaded!

WunderBlogs® & News

Nearby

Snow Depth

Station Depth Elevation
No new snow has been reported.

Coastal Water Temperatures

Place Temperature
No Stations Reporting

Earthquake Activity

City Distance Mag. Time & Date
No recent earthquake activity has been reported nearby.
Minimum magnitude displayed is 2.5.

Nearby Weather Stations

Station Location Temp. Heat Index Dew Point Humidity Wind Precip. Elev Updated Type
Lancaster, MO 73.6 °F 77 °F 47 °F 39% SW  at  5.0 mph - / hr 915 ft 5:52 PM CDT Normal

Show More Stations Show Fewer Stations

What do you think?

We're not finished. Please let us know what you like, what you don't like, and what you are still missing.